createdAt,value
2022-12-22T00:02:36.111Z,6.93
2022-12-22T00:05:25.269Z,6.85
2022-12-22T00:08:09.410Z,6.92
2022-12-22T00:10:54.305Z,6.96
2022-12-22T00:13:38.633Z,6.86
2022-12-22T00:16:23.117Z,6.94
2022-12-22T00:19:07.579Z,6.95
2022-12-22T00:21:52.052Z,6.93
2022-12-22T00:24:36.312Z,6.96
2022-12-22T00:27:20.825Z,6.95
2022-12-22T00:30:05.148Z,7.06
2022-12-22T00:32:56.092Z,6.94
2022-12-22T00:35:43.416Z,6.94
2022-12-22T00:38:38.997Z,6.96
2022-12-22T00:41:24.944Z,7.04
2022-12-22T00:44:09.155Z,7.08
2022-12-22T00:46:57.383Z,6.99
2022-12-22T00:49:44.093Z,6.98
2022-12-22T00:52:29.518Z,7.06
2022-12-22T00:55:13.850Z,7.02
2022-12-22T00:58:00.372Z,7.04
2022-12-22T01:00:44.863Z,7.05
2022-12-22T01:03:29.941Z,7.03
2022-12-22T01:06:17.669Z,7.10
2022-12-22T01:09:02.116Z,7.02
2022-12-22T01:11:46.522Z,7.03
2022-12-22T01:14:32.042Z,7.05
2022-12-22T01:17:16.892Z,7.02
2022-12-22T01:20:01.284Z,6.98
2022-12-22T01:22:46.810Z,7.00
2022-12-22T01:25:33.917Z,7.07
2022-12-22T01:28:18.404Z,7.09
2022-12-22T01:31:03.318Z,7.11
2022-12-22T01:33:48.221Z,7.18
2022-12-22T01:36:33.306Z,7.16
2022-12-22T01:39:17.585Z,7.16
2022-12-22T01:42:02.512Z,7.10
2022-12-22T01:44:46.820Z,7.15
2022-12-22T01:47:57.439Z,7.22
2022-12-22T01:50:54.083Z,7.22
2022-12-22T01:53:45.053Z,7.21
2022-12-22T01:56:29.826Z,7.15
2022-12-22T01:59:17.705Z,7.18
2022-12-22T02:02:02.342Z,7.22
2022-12-22T02:05:00.423Z,7.17
2022-12-22T02:08:09.852Z,7.24
2022-12-22T02:11:23.712Z,7.23
2022-12-22T02:14:31.912Z,7.30
2022-12-22T02:17:19.269Z,7.28
2022-12-22T02:20:49.614Z,7.27
2022-12-22T02:23:51.364Z,7.22
2022-12-22T02:26:54.138Z,7.27
2022-12-22T02:29:47.243Z,7.33
2022-12-22T02:32:32.170Z,7.41
2022-12-22T02:35:16.468Z,7.33
2022-12-22T02:38:15.960Z,7.31
2022-12-22T02:41:41.163Z,7.34
2022-12-22T02:44:53.089Z,7.43
2022-12-22T02:47:56.366Z,7.40
2022-12-22T02:50:52.481Z,7.37
2022-12-22T02:53:38.751Z,7.42
2022-12-22T02:56:26.415Z,7.46
2022-12-22T02:59:11.705Z,7.42
2022-12-22T03:02:02.603Z,7.47
2022-12-22T03:04:47.482Z,7.50
2022-12-22T03:07:31.910Z,7.45
2022-12-22T03:10:16.409Z,7.43
2022-12-22T03:13:01.200Z,7.54
2022-12-22T03:15:45.565Z,7.54
2022-12-22T03:18:30.803Z,7.55
2022-12-22T03:21:16.255Z,7.55
2022-12-22T03:24:01.053Z,7.61
2022-12-22T03:26:27.292Z,7.62
2022-12-22T03:28:53.111Z,7.59
2022-12-22T03:31:19.008Z,7.59
2022-12-22T03:33:44.838Z,7.48
2022-12-22T03:36:10.678Z,7.61
2022-12-22T03:38:36.698Z,7.63
2022-12-22T03:41:03.315Z,7.54
2022-12-22T03:43:48.577Z,7.61
2022-12-22T03:46:31.793Z,7.60
2022-12-22T03:49:11.535Z,7.56
2022-12-22T03:51:46.879Z,7.60
2022-12-22T03:54:18.097Z,7.61
2022-12-22T03:56:43.856Z,7.54
2022-12-22T03:59:10.615Z,7.57
2022-12-22T04:01:40.053Z,7.59
2022-12-22T04:04:06.038Z,7.64
2022-12-22T04:06:31.809Z,7.56
2022-12-22T04:08:57.573Z,7.64
2022-12-22T04:11:41.706Z,7.61
2022-12-22T04:14:07.507Z,7.57
2022-12-22T04:16:33.541Z,7.55
2022-12-22T04:18:59.821Z,7.64
2022-12-22T04:21:25.726Z,7.55
2022-12-22T04:23:51.606Z,7.53
2022-12-22T04:26:19.248Z,7.63
2022-12-22T04:28:45.219Z,7.60
2022-12-22T04:31:11.189Z,7.59
2022-12-22T04:33:37.098Z,7.68
2022-12-22T04:36:03.108Z,7.55
2022-12-22T04:38:28.934Z,7.59
2022-12-22T04:40:54.744Z,7.68
2022-12-22T04:43:20.500Z,7.63
2022-12-22T04:45:46.343Z,7.62
2022-12-22T04:48:12.184Z,7.60
2022-12-22T04:50:38.695Z,7.62
2022-12-22T04:53:04.563Z,7.63
2022-12-22T04:55:30.332Z,7.63
2022-12-22T04:57:56.147Z,7.68
2022-12-22T05:00:22.154Z,7.58
2022-12-22T05:02:48.035Z,7.62
2022-12-22T05:05:14.007Z,7.57
2022-12-22T05:07:39.891Z,7.58
2022-12-22T05:10:06.267Z,7.61
2022-12-22T05:12:50.556Z,7.60
2022-12-22T05:15:16.460Z,7.63
2022-12-22T05:17:42.276Z,7.65
2022-12-22T05:20:08.605Z,7.64
2022-12-22T05:22:34.367Z,7.60
2022-12-22T05:25:00.153Z,7.57
2022-12-22T05:27:25.970Z,7.56
2022-12-22T05:29:51.795Z,7.60
2022-12-22T05:32:17.604Z,7.62
2022-12-22T05:34:43.408Z,7.65
2022-12-22T05:37:09.175Z,7.71
2022-12-22T05:39:34.961Z,7.77
2022-12-22T05:42:00.813Z,7.70
2022-12-22T05:44:26.612Z,7.69
2022-12-22T05:46:52.527Z,7.72
2022-12-22T05:49:18.746Z,7.76
2022-12-22T05:51:45.214Z,7.71
2022-12-22T05:54:11.417Z,7.72
2022-12-22T05:56:37.261Z,7.78
2022-12-22T05:59:03.405Z,7.80
2022-12-22T06:01:29.328Z,7.78
2022-12-22T06:04:00.094Z,7.82
2022-12-22T06:06:26.564Z,7.81
2022-12-22T06:08:52.421Z,7.83
2022-12-22T06:11:18.581Z,7.82
2022-12-22T06:13:45.167Z,7.85
2022-12-22T06:16:11.558Z,7.86
2022-12-22T06:18:37.587Z,7.86
2022-12-22T06:21:03.657Z,7.88
2022-12-22T06:23:29.645Z,7.88
2022-12-22T06:26:00.805Z,7.89
2022-12-22T06:28:27.878Z,7.89
2022-12-22T06:30:54.620Z,7.89
2022-12-22T06:33:20.988Z,7.90
2022-12-22T06:35:50.713Z,7.91
2022-12-22T06:38:19.702Z,7.89
2022-12-22T06:40:46.776Z,7.85
2022-12-22T06:43:12.581Z,7.92
2022-12-22T06:45:42.686Z,7.90
2022-12-22T06:48:10.222Z,7.95
2022-12-22T06:50:36.081Z,7.97
2022-12-22T06:53:02.682Z,7.96
2022-12-22T06:55:28.602Z,7.98
2022-12-22T06:57:54.539Z,7.96
2022-12-22T07:00:20.888Z,7.95
2022-12-22T07:02:46.832Z,7.94
2022-12-22T07:05:14.830Z,8.02
2022-12-22T07:07:41.097Z,7.97
2022-12-22T07:10:07.526Z,7.99
2022-12-22T07:12:33.683Z,7.93
2022-12-22T07:14:59.530Z,7.91
2022-12-22T07:17:25.508Z,7.96
2022-12-22T07:19:51.306Z,7.94
2022-12-22T07:22:17.093Z,7.95
2022-12-22T07:24:42.900Z,7.95
2022-12-22T07:27:09.473Z,7.95
2022-12-22T07:29:35.864Z,7.97
2022-12-22T07:32:02.655Z,7.93
2022-12-22T07:34:28.542Z,7.87
2022-12-22T07:36:54.404Z,7.95
2022-12-22T07:39:20.265Z,7.93
2022-12-22T07:42:04.564Z,7.88
2022-12-22T07:44:30.364Z,7.83
2022-12-22T07:46:56.219Z,7.78
2022-12-22T07:49:40.937Z,7.78
2022-12-22T07:52:06.710Z,7.92
2022-12-22T07:54:39.616Z,7.84
2022-12-22T07:57:07.347Z,7.72
2022-12-22T07:59:33.117Z,7.67
2022-12-22T08:01:59.030Z,7.83
2022-12-22T08:04:25.271Z,7.73
2022-12-22T08:06:51.249Z,7.66
2022-12-22T08:09:18.937Z,7.73
2022-12-22T08:11:44.843Z,7.77
2022-12-22T08:14:10.657Z,7.69
2022-12-22T08:16:36.629Z,7.70
2022-12-22T08:19:02.455Z,7.65
2022-12-22T08:21:28.361Z,7.71
2022-12-22T08:23:54.746Z,7.68
2022-12-22T08:26:35.472Z,7.62
2022-12-22T08:29:16.014Z,7.66
2022-12-22T08:31:42.356Z,7.74
2022-12-22T08:34:12.048Z,7.70
2022-12-22T08:36:41.097Z,7.66
2022-12-22T08:39:07.200Z,7.81
2022-12-22T08:41:49.343Z,7.71
2022-12-22T08:44:16.300Z,7.78
2022-12-22T08:46:42.173Z,7.68
2022-12-22T08:49:08.004Z,7.66
2022-12-22T08:51:33.954Z,7.77
2022-12-22T08:54:05.119Z,7.69
2022-12-22T08:56:32.001Z,7.79
2022-12-22T08:58:57.863Z,7.80
2022-12-22T09:01:23.820Z,7.79
2022-12-22T09:03:51.228Z,7.87
2022-12-22T09:06:20.612Z,7.98
2022-12-22T09:08:57.327Z,7.87
2022-12-22T09:11:24.110Z,7.81
2022-12-22T09:13:52.430Z,7.78
2022-12-22T09:16:19.591Z,7.82
2022-12-22T09:18:45.526Z,7.87
2022-12-22T09:21:11.447Z,7.87
2022-12-22T09:23:37.314Z,7.83
2022-12-22T09:26:11.150Z,7.84
2022-12-22T09:28:37.420Z,7.82
2022-12-22T09:31:04.424Z,7.88
2022-12-22T09:33:30.929Z,7.88
2022-12-22T09:35:57.277Z,7.80
2022-12-22T09:38:27.255Z,7.80
2022-12-22T09:40:56.728Z,7.86
2022-12-22T09:43:29.118Z,7.84
2022-12-22T09:45:57.575Z,7.83
2022-12-22T09:48:26.872Z,7.80
2022-12-22T09:50:52.660Z,7.81
2022-12-22T09:53:22.938Z,7.77
2022-12-22T09:55:50.747Z,7.80
2022-12-22T09:58:28.919Z,7.86
2022-12-22T10:01:14.899Z,7.82
2022-12-22T10:03:45.940Z,7.76
2022-12-22T10:06:15.472Z,7.79
2022-12-22T10:08:41.640Z,7.83
2022-12-22T10:11:12.684Z,7.68
2022-12-22T10:13:38.561Z,7.70
2022-12-22T10:16:18.138Z,7.62
2022-12-22T10:19:03.334Z,7.66
2022-12-22T10:21:30.383Z,7.77
2022-12-22T10:23:56.311Z,7.77
2022-12-22T10:26:32.132Z,7.70
2022-12-22T10:29:06.044Z,7.68
2022-12-22T10:31:34.846Z,7.73
2022-12-22T10:34:15.783Z,7.73
2022-12-22T10:36:51.977Z,7.66
2022-12-22T10:39:27.106Z,7.80
2022-12-22T10:41:59.298Z,7.83
2022-12-22T10:44:34.136Z,7.78
2022-12-22T10:47:17.127Z,7.69
2022-12-22T10:49:46.471Z,7.75
2022-12-22T10:52:29.169Z,7.73
2022-12-22T10:55:15.657Z,7.77
2022-12-22T10:57:41.561Z,7.66
2022-12-22T11:00:30.873Z,7.61
2022-12-22T11:02:59.364Z,7.61
2022-12-22T11:05:26.038Z,7.56
2022-12-22T11:07:53.024Z,7.68
2022-12-22T11:10:33.965Z,7.56
2022-12-22T11:13:21.716Z,7.66
2022-12-22T11:15:56.257Z,7.63
2022-12-22T11:18:43.070Z,7.60
2022-12-22T11:21:53.868Z,7.51
2022-12-22T11:24:22.411Z,7.64
2022-12-22T11:27:18.966Z,7.59
2022-12-22T11:29:50.475Z,7.54
2022-12-22T11:32:29.643Z,7.43
2022-12-22T11:35:12.617Z,7.47
2022-12-22T11:37:38.358Z,7.34
2022-12-22T11:40:44.900Z,7.34
2022-12-22T11:43:20.693Z,7.33
2022-12-22T11:46:04.325Z,7.32
2022-12-22T11:49:08.491Z,7.24
2022-12-22T11:51:49.453Z,7.24
2022-12-22T11:54:32.780Z,7.21
2022-12-22T11:57:33.033Z,7.35
2022-12-22T12:00:08.202Z,7.22
2022-12-22T12:02:40.129Z,7.26
2022-12-22T12:05:08.953Z,7.07
2022-12-22T12:07:41.378Z,7.16
2022-12-22T12:10:24.343Z,7.14
2022-12-22T12:13:09.833Z,7.27
2022-12-22T12:15:43.587Z,7.64
2022-12-22T12:18:38.499Z,7.74
2022-12-22T12:21:29.626Z,7.91
2022-12-22T12:24:36.136Z,8.49
2022-12-22T12:27:09.404Z,9.17
2022-12-22T12:29:40.998Z,9.58
2022-12-22T12:32:22.463Z,9.20
2022-12-22T12:34:52.120Z,9.61
2022-12-22T12:37:36.402Z,9.87
2022-12-22T12:40:29.427Z,9.73
2022-12-22T12:42:57.449Z,8.98
2022-12-22T12:45:41.413Z,8.65
2022-12-22T12:48:37.332Z,8.67
2022-12-22T12:51:41.775Z,8.73
2022-12-22T12:54:28.633Z,8.77
2022-12-22T12:57:06.588Z,8.63
2022-12-22T12:59:41.803Z,8.10
2022-12-22T13:02:26.325Z,8.05
2022-12-22T13:05:02.984Z,8.18
2022-12-22T13:08:06.050Z,8.09
2022-12-22T13:10:34.627Z,7.61
2022-12-22T13:13:00.502Z,7.58
2022-12-22T13:15:33.952Z,7.77
2022-12-22T13:18:02.009Z,7.62
2022-12-22T13:20:34.482Z,7.61
2022-12-22T13:23:03.392Z,7.89
2022-12-22T13:25:48.959Z,8.01
2022-12-22T13:28:17.784Z,7.92
2022-12-22T13:30:56.432Z,8.12
2022-12-22T13:33:26.314Z,8.08
2022-12-22T13:35:58.524Z,8.07
2022-12-22T13:38:36.777Z,8.20
2022-12-22T13:41:13.376Z,8.07
2022-12-22T13:43:43.464Z,7.93
2022-12-22T13:46:10.436Z,7.77
2022-12-22T13:48:45.636Z,7.74
2022-12-22T13:51:35.023Z,7.76
2022-12-22T13:54:12.296Z,7.57
2022-12-22T13:56:48.998Z,7.46
2022-12-22T13:59:35.212Z,7.54
2022-12-22T14:02:08.029Z,7.41
2022-12-22T14:04:36.524Z,7.35
2022-12-22T14:07:11.966Z,7.19
2022-12-22T14:09:43.713Z,7.18
2022-12-22T14:12:31.914Z,7.32
2022-12-22T14:15:00.769Z,7.14
2022-12-22T14:17:39.458Z,7.12
2022-12-22T14:20:18.765Z,7.07
2022-12-22T14:22:52.415Z,7.02
2022-12-22T14:25:22.621Z,6.99
2022-12-22T14:27:52.420Z,7.06
2022-12-22T14:30:24.027Z,6.94
2022-12-22T14:32:55.407Z,6.97
2022-12-22T14:35:26.630Z,7.02
2022-12-22T14:37:55.336Z,7.00
2022-12-22T14:40:29.186Z,6.93
2022-12-22T14:42:57.175Z,6.89
2022-12-22T14:45:23.910Z,6.95
2022-12-22T14:47:51.003Z,6.98
2022-12-22T14:50:22.789Z,6.97
2022-12-22T14:53:04.409Z,6.93
2022-12-22T14:55:42.232Z,6.99
2022-12-22T14:58:21.025Z,7.02
2022-12-22T15:00:49.216Z,6.94
2022-12-22T15:03:36.318Z,7.03
2022-12-22T15:06:24.580Z,6.94
2022-12-22T15:08:53.745Z,6.78
2022-12-22T15:11:23.601Z,6.84
2022-12-22T15:13:50.939Z,6.84
2022-12-22T15:16:19.589Z,6.85
2022-12-22T15:18:46.853Z,6.86
2022-12-22T15:21:15.381Z,6.84
2022-12-22T15:23:41.581Z,6.77
2022-12-22T15:26:07.866Z,6.73
2022-12-22T15:28:33.811Z,6.79
2022-12-22T15:31:01.947Z,6.77
2022-12-22T15:33:29.410Z,6.76
2022-12-22T15:35:55.442Z,6.75
2022-12-22T15:38:23.622Z,6.68
2022-12-22T15:40:50.904Z,6.63
2022-12-22T15:43:53.923Z,6.61
2022-12-22T15:46:05.397Z,6.50
2022-12-22T15:48:33.443Z,6.49
2022-12-22T15:51:01.693Z,6.50
2022-12-22T15:53:27.708Z,6.56
2022-12-22T15:55:55.020Z,6.67
2022-12-22T15:58:25.502Z,6.57
2022-12-22T16:00:51.271Z,6.63
2022-12-22T16:03:18.482Z,6.56
2022-12-22T16:05:45.018Z,6.65
2022-12-22T16:08:18.266Z,6.50
2022-12-22T16:10:46.058Z,6.63
2022-12-22T16:13:14.773Z,6.58
2022-12-22T16:15:40.909Z,6.67
2022-12-22T16:18:07.279Z,6.70
2022-12-22T16:20:38.716Z,6.66
2022-12-22T16:23:06.849Z,6.67
2022-12-22T16:25:37.939Z,6.61
2022-12-22T16:28:04.962Z,6.67
2022-12-22T16:30:32.692Z,6.51
2022-12-22T16:32:59.043Z,6.58
2022-12-22T16:35:27.064Z,6.58
2022-12-22T16:37:56.090Z,6.63
2022-12-22T16:40:22.180Z,6.61
2022-12-22T16:45:43.694Z,6.38
2022-12-22T16:48:14.355Z,6.44
2022-12-22T16:50:44.495Z,6.25
2022-12-22T16:53:11.368Z,6.29
2022-12-22T16:55:37.397Z,6.33
2022-12-22T16:58:12.092Z,6.27
2022-12-22T17:00:41.426Z,6.18
2022-12-22T17:03:17.612Z,6.26
2022-12-22T17:05:47.525Z,6.22
2022-12-22T17:08:29.601Z,6.20
2022-12-22T17:10:58.421Z,6.25
2022-12-22T17:13:25.249Z,6.34
2022-12-22T17:15:51.287Z,6.36
2022-12-22T17:18:19.671Z,6.21
2022-12-22T17:20:48.166Z,6.16
2022-12-22T17:23:38.683Z,6.21
2022-12-22T17:26:09.997Z,6.28
2022-12-22T17:28:36.957Z,6.26
2022-12-22T17:31:02.824Z,6.30
2022-12-22T17:33:28.751Z,6.41
2022-12-22T17:35:56.001Z,6.32
2022-12-22T17:38:25.265Z,6.38
2022-12-22T17:40:51.567Z,6.28
2022-12-22T17:43:19.119Z,6.32
2022-12-22T17:45:46.061Z,6.43
2022-12-22T17:48:15.984Z,6.46
2022-12-22T17:50:45.397Z,6.44
2022-12-22T17:53:16.251Z,6.50
2022-12-22T17:58:27.988Z,6.43
2022-12-22T18:00:54.019Z,6.41
2022-12-22T18:03:20.226Z,6.49
2022-12-22T18:05:47.794Z,6.46
2022-12-22T18:08:18.261Z,6.43
2022-12-22T18:10:44.990Z,6.40
2022-12-22T18:13:20.615Z,6.46
2022-12-22T18:15:46.772Z,6.40
2022-12-22T18:18:14.697Z,6.44
2022-12-22T18:20:41.404Z,6.51
2022-12-22T18:23:31.731Z,6.45
2022-12-22T18:25:58.155Z,6.45
2022-12-22T18:28:23.987Z,6.45
2022-12-22T18:30:50.430Z,6.49
2022-12-22T18:33:17.114Z,6.57
2022-12-22T18:35:43.313Z,6.58
2022-12-22T18:38:24.095Z,6.59
2022-12-22T18:40:50.082Z,6.69
2022-12-22T18:43:15.947Z,6.68
2022-12-22T18:45:41.848Z,6.68
2022-12-22T18:48:08.270Z,6.69
2022-12-22T18:50:34.335Z,6.68
2022-12-22T18:53:05.489Z,6.73
2022-12-22T18:55:32.602Z,6.74
2022-12-22T18:58:00.010Z,6.73
2022-12-22T19:00:30.036Z,6.81
2022-12-22T19:03:01.366Z,6.78
2022-12-22T19:05:31.873Z,6.82
2022-12-22T19:07:59.000Z,6.81
2022-12-22T19:10:49.696Z,6.93
2022-12-22T19:13:25.097Z,6.83
2022-12-22T19:15:51.451Z,6.79
2022-12-22T19:18:26.014Z,6.83
2022-12-22T19:20:54.530Z,6.93
2022-12-22T19:23:22.427Z,6.91
2022-12-22T19:25:52.330Z,6.87
2022-12-22T19:28:26.666Z,6.86
2022-12-22T19:30:53.227Z,6.92
2022-12-22T19:33:33.045Z,6.91
2022-12-22T19:36:00.504Z,6.91
2022-12-22T19:38:27.445Z,6.89
2022-12-22T19:40:57.183Z,6.81
2022-12-22T19:43:23.304Z,6.85
2022-12-22T19:45:53.255Z,6.78
2022-12-22T19:48:24.809Z,6.77
2022-12-22T19:50:52.186Z,6.87
2022-12-22T19:53:19.073Z,7.00
2022-12-22T19:55:54.406Z,6.93
2022-12-22T19:58:36.614Z,6.94
2022-12-22T20:01:03.781Z,6.91
2022-12-22T20:03:30.215Z,6.90
2022-12-22T20:05:56.227Z,6.80
2022-12-22T20:08:22.140Z,6.80
2022-12-22T20:10:52.971Z,6.95
2022-12-22T20:13:23.185Z,6.93
2022-12-22T20:15:49.363Z,6.94
2022-12-22T20:18:19.482Z,6.93
2022-12-22T20:20:54.085Z,6.94
2022-12-22T20:23:24.007Z,6.93
2022-12-22T20:25:56.279Z,6.91
2022-12-22T20:28:25.431Z,6.88
2022-12-22T20:30:52.345Z,6.82
2022-12-22T20:33:20.696Z,6.93
2022-12-22T20:35:48.561Z,7.00
2022-12-22T20:38:26.430Z,7.09
2022-12-22T20:40:53.319Z,7.11
2022-12-22T20:43:21.870Z,7.07
2022-12-22T20:45:51.242Z,7.18
2022-12-22T20:48:22.730Z,7.07
2022-12-22T20:50:48.828Z,7.15
2022-12-22T20:53:18.025Z,7.24
2022-12-22T20:55:44.481Z,7.19
2022-12-22T20:58:22.684Z,7.09
2022-12-22T21:00:53.316Z,7.23
2022-12-22T21:03:19.500Z,7.22
2022-12-22T21:05:46.960Z,7.15
2022-12-22T21:08:20.955Z,7.23
2022-12-22T21:10:48.009Z,7.26
2022-12-22T21:13:15.571Z,7.24
2022-12-22T21:15:43.625Z,7.31
2022-12-22T21:18:21.540Z,7.34
2022-12-22T21:20:49.482Z,7.25
2022-12-22T21:23:18.859Z,7.25
2022-12-22T21:25:49.281Z,7.30
2022-12-22T21:28:25.725Z,7.26
2022-12-22T21:30:52.061Z,7.35
2022-12-22T21:33:18.096Z,7.31
2022-12-22T21:35:44.212Z,7.33
2022-12-22T21:38:18.240Z,7.24
2022-12-22T21:40:47.163Z,7.23
2022-12-22T21:43:14.566Z,7.37
2022-12-22T21:45:43.074Z,7.30
2022-12-22T21:48:15.050Z,7.34
2022-12-22T21:50:41.138Z,7.31
2022-12-22T21:53:07.632Z,7.34
2022-12-22T21:55:38.127Z,7.26
2022-12-22T21:58:06.260Z,7.26
2022-12-22T22:00:33.716Z,7.27
2022-12-22T22:03:02.393Z,7.24
2022-12-22T22:05:32.913Z,7.27
2022-12-22T22:07:59.676Z,7.27
2022-12-22T22:10:35.116Z,7.26
2022-12-22T22:13:01.783Z,7.24
2022-12-22T22:15:29.438Z,7.34
2022-12-22T22:17:58.611Z,7.39
2022-12-22T22:20:29.952Z,7.34
2022-12-22T22:22:57.217Z,7.38
2022-12-22T22:25:23.527Z,7.35
2022-12-22T22:27:50.065Z,7.34
2022-12-22T22:30:18.683Z,7.33
2022-12-22T22:32:45.045Z,7.27
2022-12-22T22:35:11.661Z,7.31
2022-12-22T22:37:39.245Z,7.26
2022-12-22T22:40:09.177Z,7.32
2022-12-22T22:42:36.234Z,7.33
2022-12-22T22:45:02.912Z,7.31
2022-12-22T22:47:28.741Z,7.34
2022-12-22T22:49:54.568Z,7.30
2022-12-22T22:52:20.415Z,7.31
2022-12-22T22:54:46.239Z,7.41
2022-12-22T22:57:13.132Z,7.36
2022-12-22T22:59:39.446Z,7.34
2022-12-22T23:02:05.436Z,7.22
2022-12-22T23:04:31.869Z,7.24
2022-12-22T23:06:57.794Z,7.34
2022-12-22T23:09:23.688Z,7.31
2022-12-22T23:11:53.140Z,7.36
2022-12-22T23:14:20.213Z,7.33
2022-12-22T23:16:48.133Z,7.38
2022-12-22T23:19:14.431Z,7.36
2022-12-22T23:21:40.210Z,7.39
2022-12-22T23:24:06.775Z,7.32
2022-12-22T23:26:32.732Z,7.34
2022-12-22T23:29:03.311Z,7.29
2022-12-22T23:31:31.927Z,7.30
2022-12-22T23:33:57.900Z,7.29
2022-12-22T23:36:23.993Z,7.25
2022-12-22T23:38:51.049Z,7.32
2022-12-22T23:41:17.567Z,7.29
2022-12-22T23:43:43.466Z,7.30
2022-12-22T23:46:12.201Z,7.28
2022-12-22T23:48:39.471Z,7.26
2022-12-22T23:51:06.711Z,7.35
2022-12-22T23:53:33.416Z,7.23
2022-12-22T23:55:59.223Z,7.27
2022-12-22T23:58:25.097Z,7.28
